Time;durP1;ratioP1;P1;durP2;ratioP2;P2;SDS_P1;SDS_P2;PMS_P1;PMS_P2;Temp;Humidity;BMP_temperature;BMP_pressure;BME280_temperature;BME280_humidity;BME280_pressure;Samples;Min_cycle;Max_cycle;Signal;HPM_P1;HPM_P2
2022/02/01 00:01:57;;;;;;;18.00;3.73;;;4.40;99.90;;;;;;5073351;28;20510;-65
2022/02/01 00:04:34;;;;;;;20.77;3.40;;;4.40;99.90;;;;;;5073416;28;20432;-65
2022/02/01 00:07:10;;;;;;;17.20;4.00;;;4.30;99.90;;;;;;5073132;28;20535;-65
2022/02/01 00:09:46;;;;;;;16.50;3.13;;;4.20;99.90;;;;;;5073328;28;20433;-66
2022/02/01 00:12:28;;;;;;;21.63;4.10;;;4.10;99.90;;;;;;5073374;28;20435;-65
2022/02/01 00:18:08;;;;;;;14.30;2.87;;;4.10;99.90;;;;;;5132484;27;20520;-66
2022/02/01 00:33:06;;;;;;;14.60;3.13;;;4.10;99.90;;;;;;5131706;27;20458;-66
2022/02/01 00:34:52;;;;;;;14.73;3.10;;;4.00;99.90;;;;;;5131520;28;20479;-66
2022/02/01 00:37:22;;;;;;;18.90;2.80;;;4.00;99.90;;;;;;5131723;27;20456;-66
2022/02/01 00:39:56;;;;;;;15.23;3.67;;;3.90;99.90;;;;;;5131828;27;20438;-66
2022/02/01 00:42:23;;;;;;;13.50;2.90;;;3.90;99.90;;;;;;5131509;27;20430;-66
2022/02/01 00:44:49;;;;;;;19.63;3.40;;;3.90;99.90;;;;;;5131119;27;20936;-66
2022/02/01 00:47:16;;;;;;;13.77;2.33;;;3.90;99.90;;;;;;5131340;27;20477;-66
2022/02/01 00:49:44;;;;;;;20.47;2.57;;;3.90;99.90;;;;;;5131246;27;20431;-66
2022/02/01 00:52:11;;;;;;;18.93;3.87;;;3.90;99.90;;;;;;5131215;27;20456;-66
2022/02/01 00:54:40;;;;;;;18.80;4.30;;;3.90;99.90;;;;;;5130975;27;20838;-66
2022/02/01 00:57:10;;;;;;;16.30;4.33;;;3.90;99.90;;;;;;5131159;27;20438;-66
2022/02/01 00:59:36;;;;;;;14.00;2.87;;;4.00;99.90;;;;;;5130769;27;20929;-67
2022/02/01 01:02:04;;;;;;;13.73;3.60;;;4.00;99.90;;;;;;5131069;27;20494;-66
2022/02/01 01:04:31;;;;;;;13.27;3.30;;;4.00;99.90;;;;;;5131012;27;20442;-66
2022/02/01 01:06:59;;;;;;;13.80;2.57;;;4.00;99.90;;;;;;5130839;27;20470;-66
2022/02/01 01:09:26;;;;;;;14.87;3.17;;;4.00;99.90;;;;;;5130843;27;20441;-66
2022/02/01 01:11:55;;;;;;;12.90;2.50;;;4.00;99.90;;;;;;5130461;27;20998;-66
2022/02/01 01:14:49;;;;;;;13.27;3.17;;;4.00;99.90;;;;;;5130723;27;20446;-66
2022/02/01 01:45:09;;;;;;;11.80;2.23;;;4.10;99.90;;;;;;5116427;28;20417;-66
2022/02/01 01:53:16;;;;;;;19.60;2.50;;;4.10;99.90;;;;;;5116520;28;20768;-66
2022/02/01 01:55:47;;;;;;;10.93;2.30;;;4.10;99.90;;;;;;5116424;28;20805;-66
2022/02/01 01:58:15;;;;;;;16.27;4.23;;;4.20;99.90;;;;;;5116335;28;20439;-66
2022/02/01 02:03:27;;;;;;;9.73;2.77;;;4.20;99.90;;;;;;5115921;28;20894;-66
2022/02/01 02:05:54;;;;;;;9.30;2.60;;;4.20;99.90;;;;;;5115811;28;20442;-66
2022/02/01 02:08:21;;;;;;;7.23;2.60;;;4.20;99.90;;;;;;5116201;28;20835;-66
2022/02/01 02:10:57;;;;;;;7.43;3.00;;;4.20;99.90;;;;;;5116049;28;20480;-66
2022/02/01 02:16:24;;;;;;;15.47;2.80;;;4.20;99.90;;;;;;5073186;28;20531;-66
2022/02/01 02:18:50;;;;;;;15.63;2.70;;;4.20;99.90;;;;;;5072955;28;20440;-66
2022/02/01 02:21:21;;;;;;;13.07;3.00;;;4.20;99.90;;;;;;5091502;28;20485;-66
2022/02/01 02:23:47;;;;;;;15.67;2.90;;;4.20;99.90;;;;;;5115570;28;20782;-66
2022/02/01 02:26:15;;;;;;;9.17;2.40;;;4.20;99.90;;;;;;5115377;28;20481;-66
2022/02/01 02:28:41;;;;;;;11.13;2.37;;;4.10;99.90;;;;;;5116579;28;20451;-66
2022/02/01 02:31:08;;;;;;;18.63;3.93;;;4.10;99.90;;;;;;5115633;27;20494;-66
2022/02/01 02:33:35;;;;;;;15.90;3.63;;;4.10;99.90;;;;;;5115653;28;20450;-66
2022/02/01 02:36:05;;;;;;;9.90;2.63;;;4.20;99.90;;;;;;5115613;28;20442;-66
2022/02/01 02:38:39;;;;;;;12.87;2.50;;;4.20;99.90;;;;;;5115779;28;20817;-66
2022/02/01 02:41:30;;;;;;;11.27;2.33;;;4.20;99.90;;;;;;5114716;28;20498;-66
2022/02/01 02:46:44;;;;;;;12.50;2.77;;;4.20;99.90;;;;;;5115327;28;20458;-66
2022/02/01 02:49:14;;;;;;;8.60;2.67;;;4.10;99.90;;;;;;5115330;28;20443;-66
2022/02/01 02:51:42;;;;;;;12.13;2.70;;;4.10;99.90;;;;;;5115269;28;20459;-66
2022/02/01 02:54:11;;;;;;;14.27;2.60;;;4.10;99.90;;;;;;5115246;28;20443;-66
2022/02/01 02:56:38;;;;;;;16.23;2.80;;;4.10;99.90;;;;;;5115237;28;20508;-66
2022/02/01 02:59:05;;;;;;;16.10;3.30;;;4.10;99.90;;;;;;5115137;28;20516;-66
2022/02/01 03:01:32;;;;;;;14.07;2.87;;;4.10;99.90;;;;;;5115045;28;20474;-66
2022/02/01 03:03:59;;;;;;;14.60;3.40;;;4.10;99.90;;;;;;5114956;28;20816;-66
2022/02/01 03:06:26;;;;;;;10.80;2.97;;;4.10;99.90;;;;;;5114883;28;20475;-66
2022/02/01 03:08:52;;;;;;;14.73;2.73;;;4.10;99.90;;;;;;5114984;28;20447;-66
2022/02/01 03:11:20;;;;;;;10.70;3.80;;;4.10;99.90;;;;;;5114580;28;20450;-66
2022/02/01 03:13:52;;;;;;;10.10;2.40;;;4.10;99.90;;;;;;5114812;28;20443;-66
2022/02/01 03:21:52;;;;;;;32.43;3.50;;;4.10;99.90;;;;;;5115536;28;20484;-66
2022/02/01 03:24:19;;;;;;;12.53;3.17;;;4.10;99.90;;;;;;5115454;28;20469;-66
2022/02/01 03:26:47;;;;;;;13.90;2.90;;;4.10;99.90;;;;;;5115185;28;20477;-66
2022/02/01 03:29:14;;;;;;;15.77;3.03;;;4.00;99.90;;;;;;5114463;28;20465;-66
2022/02/01 03:31:41;;;;;;;20.37;3.90;;;4.10;99.90;;;;;;5114503;28;20474;-66
2022/02/01 03:34:08;;;;;;;14.03;5.60;;;4.00;99.90;;;;;;5114561;28;20443;-66
2022/02/01 03:36:34;;;;;;;11.60;2.97;;;4.00;99.90;;;;;;5114514;28;20442;-66
2022/02/01 03:39:01;;;;;;;14.43;3.93;;;4.00;99.90;;;;;;5114343;28;20458;-66
2022/02/01 03:41:28;;;;;;;18.00;3.80;;;4.00;99.90;;;;;;5114345;28;20922;-66
2022/02/01 03:43:57;;;;;;;11.43;2.80;;;4.00;99.90;;;;;;5114335;28;20443;-66
2022/02/01 03:46:23;;;;;;;15.67;3.07;;;4.00;99.90;;;;;;5114167;28;20443;-66
2022/02/01 03:48:50;;;;;;;13.83;3.10;;;4.10;99.90;;;;;;5114285;28;20443;-66
2022/02/01 03:51:17;;;;;;;7.50;3.30;;;4.10;99.90;;;;;;5113949;28;20465;-66
2022/02/01 03:53:43;;;;;;;15.10;2.40;;;4.10;99.90;;;;;;5114180;28;20454;-66
2022/02/01 03:56:10;;;;;;;8.63;2.97;;;4.10;99.90;;;;;;5113918;28;20434;-66
2022/02/01 03:58:37;;;;;;;16.17;3.10;;;4.10;99.90;;;;;;5114751;28;20454;-66
2022/02/01 04:01:05;;;;;;;13.83;3.20;;;4.20;99.90;;;;;;5114789;28;20481;-67
2022/02/01 04:03:32;;;;;;;8.50;2.60;;;4.20;99.90;;;;;;5115051;28;20442;-66
2022/02/01 04:05:58;;;;;;;15.67;4.20;;;4.20;99.90;;;;;;5114063;28;20937;-67
2022/02/01 04:08:25;;;;;;;9.70;2.60;;;4.20;99.90;;;;;;5114316;28;20820;-67
2022/02/01 04:10:52;;;;;;;13.10;3.40;;;4.20;99.90;;;;;;5114230;28;20486;-68
2022/02/01 04:13:20;;;;;;;15.30;2.70;;;4.20;99.90;;;;;;5114030;28;20446;-67
2022/02/01 04:15:47;;;;;;;10.43;2.80;;;4.30;99.90;;;;;;5114052;28;20459;-66
2022/02/01 04:18:15;;;;;;;13.13;2.97;;;4.20;99.90;;;;;;5114024;28;20430;-66
2022/02/01 04:20:42;;;;;;;12.47;2.67;;;4.30;99.90;;;;;;5113561;28;20835;-66
2022/02/01 04:23:09;;;;;;;12.57;3.00;;;4.30;99.90;;;;;;5113846;28;20443;-66
2022/02/01 04:25:36;;;;;;;10.67;2.80;;;4.30;99.90;;;;;;5113837;28;20449;-66
2022/02/01 04:28:03;;;;;;;25.70;3.20;;;4.30;99.90;;;;;;5113742;28;20573;-66
2022/02/01 04:30:29;;;;;;;7.83;2.30;;;4.30;99.90;;;;;;5113484;28;20988;-66
2022/02/01 04:32:57;;;;;;;13.70;2.80;;;4.30;99.90;;;;;;5113791;28;20446;-66
2022/02/01 04:35:27;;;;;;;14.67;3.10;;;4.30;99.90;;;;;;5113769;28;20470;-66
2022/02/01 04:37:54;;;;;;;13.67;3.13;;;4.30;99.90;;;;;;5113734;28;20443;-66
2022/02/01 04:40:23;;;;;;;13.00;2.50;;;4.30;99.90;;;;;;5113675;28;20462;-66
2022/02/01 04:42:50;;;;;;;11.10;2.80;;;4.30;99.90;;;;;;5113670;28;20447;-66
2022/02/01 04:45:20;;;;;;;16.20;2.63;;;4.30;99.90;;;;;;5113339;28;20541;-66
2022/02/01 04:47:47;;;;;;;8.40;3.33;;;4.30;99.90;;;;;;5113179;28;20891;-66
2022/02/01 04:50:17;;;;;;;15.90;2.93;;;4.30;99.90;;;;;;5113497;28;20478;-67
2022/02/01 04:52:47;;;;;;;17.50;3.60;;;4.30;99.90;;;;;;5113293;28;20962;-66
2022/02/01 04:55:14;;;;;;;20.80;2.90;;;4.30;99.90;;;;;;5114603;28;20770;-66
2022/02/01 04:57:52;;;;;;;16.67;3.37;;;4.30;99.90;;;;;;5113538;28;20446;-66
2022/02/01 05:00:19;;;;;;;19.17;2.80;;;4.30;99.90;;;;;;5113426;28;20470;-66
2022/02/01 05:02:46;;;;;;;9.60;2.97;;;4.30;99.90;;;;;;5114286;28;20447;-66
2022/02/01 05:05:12;;;;;;;14.10;2.87;;;4.40;99.90;;;;;;5117350;28;20447;-66
2022/02/01 05:07:39;;;;;;;14.00;3.03;;;4.40;99.90;;;;;;5117269;28;20474;-66
2022/02/01 05:10:08;;;;;;;19.77;3.50;;;4.30;99.90;;;;;;5116938;28;20467;-66
2022/02/01 05:12:37;;;;;;;10.60;2.50;;;4.40;99.90;;;;;;5117243;28;20455;-66
2022/02/01 05:15:07;;;;;;;18.40;3.90;;;4.40;99.90;;;;;;5116824;28;20979;-66
2022/02/01 05:17:37;;;;;;;21.57;3.33;;;4.40;99.90;;;;;;5116840;28;20458;-67
2022/02/01 05:20:16;;;;;;;10.00;3.50;;;4.50;99.90;;;;;;5117028;28;20474;-67
2022/02/01 05:22:45;;;;;;;11.43;2.80;;;4.50;99.90;;;;;;5117066;27;20523;-66
2022/02/01 05:25:14;;;;;;;14.60;3.90;;;4.50;99.90;;;;;;5116966;28;20454;-66
2022/02/01 05:27:40;;;;;;;14.43;3.47;;;4.50;99.90;;;;;;5116783;28;20471;-66
2022/02/01 05:30:09;;;;;;;10.27;3.27;;;4.50;99.90;;;;;;5116880;28;20473;-66
2022/02/01 05:32:36;;;;;;;12.83;3.07;;;4.50;99.90;;;;;;5116577;28;20965;-66
2022/02/01 05:35:03;;;;;;;12.67;3.10;;;4.50;99.90;;;;;;5116686;28;20515;-66
2022/02/01 05:37:30;;;;;;;8.70;3.23;;;4.50;99.90;;;;;;5116468;27;20830;-66
2022/02/01 05:39:58;;;;;;;11.53;3.50;;;4.40;99.90;;;;;;5116747;28;20446;-66
2022/02/01 05:42:36;;;;;;;7.70;2.50;;;4.50;99.90;;;;;;5116745;27;20447;-66
2022/02/01 05:45:03;;;;;;;11.37;3.07;;;4.50;99.90;;;;;;5116807;28;20435;-66
2022/02/01 05:47:30;;;;;;;10.43;3.50;;;4.50;99.90;;;;;;5116540;28;20467;-66
2022/02/01 05:49:57;;;;;;;8.63;2.67;;;4.50;99.90;;;;;;5116513;28;20447;-66
2022/02/01 05:52:24;;;;;;;11.27;2.57;;;4.50;99.90;;;;;;5116680;28;20496;-66
2022/02/01 05:54:50;;;;;;;7.47;2.90;;;4.50;99.90;;;;;;5116637;28;20453;-66
2022/02/01 05:57:17;;;;;;;5.10;1.80;;;4.50;99.90;;;;;;5116481;28;20520;-65
2022/02/01 05:59:45;;;;;;;8.37;3.03;;;4.50;99.90;;;;;;5116251;28;20442;-66
2022/02/01 06:02:14;;;;;;;11.10;2.20;;;4.50;99.90;;;;;;5116420;28;20872;-65
2022/02/01 06:04:40;;;;;;;8.97;2.37;;;4.50;99.90;;;;;;5115942;27;20542;-66
2022/02/01 06:07:07;;;;;;;10.53;2.80;;;4.40;99.90;;;;;;5116110;28;20395;-65
2022/02/01 06:09:34;;;;;;;8.57;2.00;;;4.40;99.90;;;;;;5116319;28;20450;-65
2022/02/01 06:12:01;;;;;;;7.07;3.17;;;4.40;99.90;;;;;;5116092;28;20473;-66
2022/02/01 06:14:27;;;;;;;11.60;3.43;;;4.50;99.90;;;;;;5115739;28;20821;-66
2022/02/01 06:16:56;;;;;;;10.17;3.10;;;4.50;99.90;;;;;;5115985;28;20467;-66
2022/02/01 06:19:22;;;;;;;10.90;2.57;;;4.50;99.90;;;;;;5116078;28;20438;-65
2022/02/01 06:21:49;;;;;;;10.67;3.67;;;4.50;99.90;;;;;;5115641;28;20443;-65
2022/02/01 06:24:17;;;;;;;9.97;3.03;;;4.50;99.90;;;;;;5116001;28;20457;-65
2022/02/01 06:26:44;;;;;;;8.40;3.03;;;4.50;99.90;;;;;;5115579;28;20447;-66
2022/02/01 06:29:10;;;;;;;8.27;2.50;;;4.50;99.90;;;;;;5116528;28;20486;-66
2022/02/01 06:31:37;;;;;;;10.80;3.23;;;4.50;99.90;;;;;;5115822;28;20517;-66
2022/02/01 06:34:05;;;;;;;14.83;2.83;;;4.60;99.90;;;;;;5115737;28;20454;-67
2022/02/01 06:36:32;;;;;;;20.83;2.63;;;4.50;99.90;;;;;;5115633;28;20810;-67
2022/02/01 06:38:58;;;;;;;17.40;3.17;;;4.50;99.90;;;;;;5115550;28;20446;-67
2022/02/01 06:41:25;;;;;;;14.63;2.90;;;4.50;99.90;;;;;;5115120;28;20463;-67
2022/02/01 06:43:52;;;;;;;11.53;3.00;;;4.50;99.90;;;;;;5115465;28;20454;-67
2022/02/01 06:46:20;;;;;;;15.13;3.30;;;4.50;99.90;;;;;;5115406;28;20443;-67
2022/02/01 06:48:46;;;;;;;11.03;2.93;;;4.50;99.90;;;;;;5115228;28;20569;-67
2022/02/01 06:51:18;;;;;;;14.10;3.93;;;4.60;99.90;;;;;;5115238;28;20475;-67
2022/02/01 06:53:45;;;;;;;15.07;3.70;;;4.60;99.90;;;;;;5115327;28;20443;-67
2022/02/01 06:56:18;;;;;;;9.33;3.20;;;4.50;99.90;;;;;;5114905;28;20957;-68
2022/02/01 06:58:45;;;;;;;17.00;4.37;;;4.50;99.90;;;;;;5115136;28;20552;-68
2022/02/01 07:01:12;;;;;;;14.57;4.07;;;4.60;99.90;;;;;;5115018;28;20502;-68
2022/02/01 07:03:39;;;;;;;12.00;3.50;;;4.60;99.90;;;;;;5114773;27;20446;-67
2022/02/01 07:06:11;;;;;;;14.90;3.57;;;4.60;99.90;;;;;;5116300;28;20446;-67
2022/02/01 07:08:40;;;;;;;11.77;4.60;;;4.60;99.90;;;;;;5114935;28;20467;-67
2022/02/01 07:11:07;;;;;;;13.60;3.87;;;4.60;99.90;;;;;;5114889;28;20558;-67
2022/02/01 07:13:33;;;;;;;12.07;4.47;;;4.60;99.90;;;;;;5114833;28;20439;-67
2022/02/01 07:16:00;;;;;;;16.00;3.50;;;4.70;99.90;;;;;;5114707;28;20458;-67
2022/02/01 07:18:27;;;;;;;14.93;4.00;;;4.70;99.90;;;;;;5114784;28;20545;-67
2022/02/01 07:20:53;;;;;;;15.37;3.50;;;4.70;99.90;;;;;;5114734;28;20463;-67
2022/02/01 07:23:23;;;;;;;14.70;4.30;;;4.70;99.90;;;;;;5114724;28;20469;-67
2022/02/01 07:25:52;;;;;;;14.10;4.13;;;4.70;99.90;;;;;;5114094;28;20451;-67
2022/02/01 07:28:20;;;;;;;16.53;4.97;;;4.70;99.90;;;;;;5114525;28;20474;-67
2022/02/01 07:30:47;;;;;;;20.53;4.50;;;4.70;99.90;;;;;;5114181;28;20478;-67
2022/02/01 07:33:14;;;;;;;13.17;5.00;;;4.70;99.90;;;;;;5114497;28;20445;-67
2022/02/01 07:35:41;;;;;;;12.90;4.40;;;4.60;99.90;;;;;;5114204;28;20428;-67
2022/02/01 07:38:08;;;;;;;15.70;6.10;;;4.70;99.90;;;;;;5114473;28;20540;-67
2022/02/01 07:40:36;;;;;;;20.43;6.43;;;4.70;99.90;;;;;;5114514;28;20477;-67
2022/02/01 07:43:04;;;;;;;16.67;6.10;;;4.70;99.90;;;;;;5114656;28;20454;-67
2022/02/01 07:45:31;;;;;;;15.30;5.80;;;4.70;99.90;;;;;;5114572;28;20933;-67
2022/02/01 07:47:59;;;;;;;20.30;6.90;;;4.80;99.90;;;;;;5114164;28;20570;-67
2022/02/01 07:50:26;;;;;;;25.93;7.20;;;4.80;99.90;;;;;;5114269;28;20474;-67
2022/02/01 07:52:53;;;;;;;20.87;7.60;;;4.80;99.90;;;;;;5114351;28;20453;-67
2022/02/01 07:55:20;;;;;;;23.27;6.70;;;4.90;99.90;;;;;;5114289;28;20465;-67
2022/02/01 07:57:47;;;;;;;19.07;7.57;;;5.00;99.90;;;;;;5114116;28;20450;-67
2022/02/01 08:00:15;;;;;;;16.57;7.33;;;4.90;99.90;;;;;;5114082;28;20467;-67
2022/02/01 08:02:43;;;;;;;15.53;7.93;;;5.00;99.90;;;;;;5114062;28;20442;-67
2022/02/01 08:05:11;;;;;;;18.27;8.30;;;5.00;99.90;;;;;;5114032;28;20442;-67
2022/02/01 08:07:38;;;;;;;18.57;8.07;;;5.00;99.90;;;;;;5113940;28;20458;-67
2022/02/01 08:10:09;;;;;;;16.40;8.40;;;5.10;99.90;;;;;;5114595;28;20463;-67
2022/02/01 08:16:10;;;;;;;23.37;8.63;;;5.00;99.90;;;;;;5113964;28;20398;-67
2022/02/01 08:18:48;;;;;;;23.97;9.33;;;4.90;99.90;;;;;;5114178;28;20449;-67
2022/02/01 08:21:23;;;;;;;25.10;9.67;;;4.90;99.90;;;;;;5113791;28;20520;-67
2022/02/01 08:23:50;;;;;;;28.27;10.57;;;4.90;99.90;;;;;;5113939;28;20428;-67
2022/02/01 08:26:17;;;;;;;21.17;9.57;;;4.90;99.90;;;;;;5113865;28;20439;-67
2022/02/01 08:28:43;;;;;;;30.50;9.43;;;4.90;99.90;;;;;;5113719;28;20475;-67
2022/02/01 08:31:11;;;;;;;20.30;9.60;;;4.90;99.90;;;;;;5113436;28;20988;-67
2022/02/01 08:33:38;;;;;;;21.90;10.80;;;5.00;99.90;;;;;;5113470;28;20929;-67
2022/02/01 08:36:06;;;;;;;23.33;10.80;;;5.00;99.90;;;;;;5113695;28;20536;-67
2022/02/01 08:38:32;;;;;;;23.63;9.90;;;5.00;99.90;;;;;;5115835;28;20832;-67
2022/02/01 08:41:00;;;;;;;24.17;10.00;;;5.10;99.90;;;;;;5117807;28;20473;-67
2022/02/01 08:43:27;;;;;;;29.47;11.57;;;5.20;99.90;;;;;;5117821;28;20528;-67
2022/02/01 08:45:54;;;;;;;25.33;11.30;;;5.20;99.90;;;;;;5117772;28;20511;-67
2022/02/01 08:48:22;;;;;;;29.67;12.50;;;5.30;99.90;;;;;;5117613;28;20474;-67
2022/02/01 08:50:51;;;;;;;24.33;11.83;;;5.30;99.90;;;;;;5117554;28;20474;-68
2022/02/01 08:53:22;;;;;;;22.27;12.83;;;5.20;99.90;;;;;;5117608;28;20446;-68
2022/02/01 08:56:06;;;;;;;27.13;13.37;;;5.20;99.90;;;;;;5117559;28;20431;-67
2022/02/01 08:58:33;;;;;;;30.40;15.90;;;5.20;99.90;;;;;;5117533;28;20433;-67
2022/02/01 09:01:00;;;;;;;27.80;13.43;;;5.20;99.90;;;;;;5117417;28;20459;-67
2022/02/01 09:03:31;;;;;;;25.60;16.13;;;5.10;99.90;;;;;;5117415;28;20470;-67
2022/02/01 09:05:58;;;;;;;29.20;14.07;;;5.20;99.90;;;;;;5117502;28;20431;-67
2022/02/01 09:08:25;;;;;;;23.00;13.20;;;5.30;99.90;;;;;;5117310;28;20565;-67
2022/02/01 09:10:52;;;;;;;21.93;14.20;;;5.30;99.90;;;;;;5117291;28;20508;-67
2022/02/01 09:13:19;;;;;;;24.90;13.93;;;5.20;99.90;;;;;;5117039;28;20951;-67
2022/02/01 09:15:46;;;;;;;19.53;12.57;;;5.20;99.90;;;;;;5117020;28;20916;-67
2022/02/01 09:18:13;;;;;;;23.87;13.13;;;5.20;99.90;;;;;;5116861;27;20459;-68
2022/02/01 09:20:41;;;;;;;22.57;12.60;;;5.30;99.90;;;;;;5117060;27;20489;-67
2022/02/01 09:23:07;;;;;;;25.63;11.47;;;5.30;99.90;;;;;;5116878;28;20449;-67
2022/02/01 09:25:34;;;;;;;19.57;12.57;;;5.40;99.90;;;;;;5117118;28;20470;-67
2022/02/01 09:28:01;;;;;;;22.37;12.20;;;5.40;99.90;;;;;;5116983;28;20442;-67
2022/02/01 09:30:30;;;;;;;20.03;11.03;;;5.40;99.90;;;;;;5116912;27;20462;-68
2022/02/01 09:32:57;;;;;;;17.37;10.87;;;5.40;99.90;;;;;;5116784;28;20470;-68
2022/02/01 09:35:24;;;;;;;19.27;11.10;;;5.40;99.90;;;;;;5116832;28;20532;-67
2022/02/01 09:37:52;;;;;;;16.20;11.30;;;5.40;99.90;;;;;;5116519;28;20427;-67
2022/02/01 09:40:18;;;;;;;14.87;10.60;;;5.40;99.90;;;;;;5116690;28;20466;-68
2022/02/01 09:42:45;;;;;;;21.73;10.83;;;5.40;99.90;;;;;;5116735;28;20450;-68
2022/02/01 09:45:12;;;;;;;14.13;10.13;;;5.40;99.90;;;;;;5116784;27;20439;-68
2022/02/01 09:47:40;;;;;;;10.90;9.60;;;5.50;99.90;;;;;;5116652;28;20485;-67
2022/02/01 09:50:08;;;;;;;15.00;8.47;;;5.50;99.90;;;;;;5115935;28;20486;-68
2022/02/01 09:52:37;;;;;;;12.53;8.60;;;5.60;99.90;;;;;;5116589;28;20469;-68
2022/02/01 09:55:09;;;;;;;13.37;9.70;;;5.70;99.90;;;;;;5116238;28;20869;-68
2022/02/01 09:57:36;;;;;;;12.30;8.80;;;5.70;99.90;;;;;;5116487;28;20780;-68
2022/02/01 10:00:12;;;;;;;15.10;9.97;;;5.70;99.90;;;;;;5116078;28;20918;-68
2022/02/01 10:02:41;;;;;;;12.93;9.50;;;5.70;99.90;;;;;;5116359;28;20473;-68
2022/02/01 10:05:10;;;;;;;15.73;8.70;;;5.80;99.90;;;;;;5116276;27;20443;-68
2022/02/01 10:07:47;;;;;;;9.43;8.20;;;5.80;99.90;;;;;;5116191;27;20446;-68
2022/02/01 10:10:15;;;;;;;10.30;8.30;;;5.80;99.90;;;;;;5116196;28;20517;-68
2022/02/01 10:12:43;;;;;;;13.40;9.20;;;5.80;99.90;;;;;;5116173;28;20443;-68
2022/02/01 10:15:20;;;;;;;14.83;9.00;;;5.80;99.90;;;;;;5116073;28;20455;-68
2022/02/01 10:17:49;;;;;;;12.27;8.60;;;5.90;99.90;;;;;;5115683;28;20527;-67
2022/02/01 10:20:17;;;;;;;11.23;8.73;;;5.90;99.90;;;;;;5115991;28;20466;-68
2022/02/01 10:22:45;;;;;;;10.17;8.60;;;5.90;99.90;;;;;;5115952;28;20438;-68
2022/02/01 10:25:28;;;;;;;9.77;8.47;;;5.90;99.90;;;;;;5115578;28;20804;-68
2022/02/01 10:27:58;;;;;;;7.50;6.80;;;5.90;99.90;;;;;;5115877;28;20433;-68
2022/02/01 10:30:31;;;;;;;10.47;8.57;;;5.90;99.90;;;;;;5115647;28;20543;-68
2022/02/01 10:33:41;;;;;;;8.13;6.80;;;5.90;99.90;;;;;;5116670;28;20921;-68
2022/02/01 10:36:07;;;;;;;9.97;7.80;;;5.90;99.90;;;;;;5115368;28;20438;-68
2022/02/01 10:38:35;;;;;;;11.60;7.97;;;5.90;99.90;;;;;;5115684;28;20538;-68
2022/02/01 10:41:04;;;;;;;11.70;8.43;;;6.00;99.90;;;;;;5115662;28;20465;-68
2022/02/01 10:43:33;;;;;;;8.17;7.37;;;6.00;99.90;;;;;;5115214;28;20949;-68
2022/02/01 10:46:04;;;;;;;12.23;8.30;;;6.00;99.90;;;;;;5115456;28;20445;-68
2022/02/01 10:48:32;;;;;;;10.37;7.67;;;6.10;99.90;;;;;;5115443;28;20438;-68
2022/02/01 10:51:04;;;;;;;9.87;7.87;;;6.10;99.90;;;;;;5115386;28;20466;-68
2022/02/01 10:53:31;;;;;;;8.50;7.10;;;6.20;99.90;;;;;;5115429;28;20427;-67
2022/02/01 10:56:00;;;;;;;8.03;7.20;;;6.30;99.90;;;;;;5115339;28;20500;-67
2022/02/01 10:58:28;;;;;;;7.77;6.97;;;6.30;99.90;;;;;;5115213;28;20451;-67
2022/02/01 11:00:55;;;;;;;9.67;7.13;;;6.30;99.90;;;;;;5114325;28;20463;-67
2022/02/01 11:03:23;;;;;;;11.50;6.97;;;6.40;99.90;;;;;;5115262;28;20454;-67
2022/02/01 11:05:51;;;;;;;8.00;7.20;;;6.40;99.90;;;;;;5115184;28;20450;-68
2022/02/01 11:08:22;;;;;;;7.53;6.30;;;6.40;99.90;;;;;;5115062;28;20443;-68
2022/02/01 11:10:51;;;;;;;12.73;7.60;;;6.40;99.90;;;;;;5114977;28;20482;-68
2022/02/01 11:13:18;;;;;;;6.57;5.73;;;6.50;99.90;;;;;;5114953;28;20451;-68
2022/02/01 11:15:57;;;;;;;7.03;6.40;;;6.50;99.90;;;;;;5115265;28;20443;-67
2022/02/01 11:18:26;;;;;;;9.60;6.03;;;6.50;99.90;;;;;;5114981;28;20905;-68
2022/02/01 11:20:54;;;;;;;8.07;7.00;;;6.50;99.90;;;;;;5115282;28;20501;-67
2022/02/01 11:23:22;;;;;;;11.47;6.23;;;6.60;99.90;;;;;;5115062;28;20445;-67
2022/02/01 11:25:54;;;;;;;6.67;5.47;;;6.60;99.90;;;;;;5114781;27;20447;-68
2022/02/01 11:28:45;;;;;;;6.67;5.93;;;6.60;99.90;;;;;;5114763;28;20434;-68
2022/02/01 11:31:14;;;;;;;6.57;5.50;;;6.60;99.90;;;;;;5114543;28;20463;-68
2022/02/01 11:33:42;;;;;;;6.70;6.00;;;6.70;99.90;;;;;;5114606;28;20451;-68
2022/02/01 11:36:11;;;;;;;6.27;5.73;;;6.60;99.90;;;;;;5114560;28;20446;-74
2022/02/01 11:38:52;;;;;;;6.73;6.13;;;6.70;99.90;;;;;;5114636;28;20819;-70
2022/02/01 11:41:29;;;;;;;6.93;5.90;;;6.70;99.90;;;;;;5114364;28;20470;-72
2022/02/01 11:44:07;;;;;;;5.37;4.90;;;6.80;99.90;;;;;;5114514;28;20435;-70
2022/02/01 11:46:35;;;;;;;6.23;5.63;;;6.80;99.90;;;;;;5114929;28;20429;-70
2022/02/01 11:49:04;;;;;;;6.27;5.77;;;6.80;99.90;;;;;;5114313;28;20434;-70
2022/02/01 11:51:31;;;;;;;12.67;6.43;;;6.80;99.90;;;;;;5114548;28;20557;-71
2022/02/01 11:54:00;;;;;;;6.13;5.43;;;6.80;99.90;;;;;;5114374;28;20482;-70
2022/02/01 11:56:32;;;;;;;6.37;5.63;;;6.80;99.90;;;;;;5114289;28;20451;-70
2022/02/01 11:59:02;;;;;;;7.87;5.53;;;6.80;99.90;;;;;;5114747;28;20443;-71
2022/02/01 12:01:34;;;;;;;5.43;5.00;;;6.80;99.90;;;;;;5114137;28;20471;-70
2022/02/01 12:04:04;;;;;;;8.20;5.03;;;6.90;99.90;;;;;;5114197;28;20431;-70
2022/02/01 12:06:40;;;;;;;6.33;5.70;;;6.90;99.90;;;;;;5114149;28;20773;-71
2022/02/01 12:09:11;;;;;;;6.30;5.70;;;6.90;99.90;;;;;;5113978;28;20470;-70
2022/02/01 12:11:40;;;;;;;6.10;5.50;;;7.00;99.90;;;;;;5113890;28;20466;-71
2022/02/01 12:14:07;;;;;;;5.57;4.90;;;7.10;99.90;;;;;;5114021;28;20474;-71
2022/02/01 12:16:34;;;;;;;4.57;4.03;;;7.20;99.90;;;;;;5113766;28;20553;-71
2022/02/01 12:19:05;;;;;;;5.53;4.70;;;7.20;99.90;;;;;;5113991;28;20442;-70
2022/02/01 12:21:46;;;;;;;5.00;4.53;;;7.20;99.90;;;;;;5113872;28;20473;-71
2022/02/01 12:24:13;;;;;;;5.40;4.00;;;7.30;99.90;;;;;;5113976;28;20847;-71
2022/02/01 12:26:41;;;;;;;4.40;3.63;;;7.30;99.90;;;;;;5114001;28;20438;-71
2022/02/01 12:29:10;;;;;;;4.83;3.67;;;7.30;99.90;;;;;;5113799;28;20446;-70
2022/02/01 12:31:39;;;;;;;5.20;4.00;;;7.30;99.90;;;;;;5113757;28;20467;-70
2022/02/01 12:34:12;;;;;;;4.30;3.77;;;7.30;99.90;;;;;;5113842;28;20470;-70
2022/02/01 12:36:41;;;;;;;3.63;3.20;;;7.40;99.90;;;;;;5113835;28;20435;-70
2022/02/01 12:39:12;;;;;;;2.90;2.70;;;7.40;99.90;;;;;;5113779;28;20809;-70
2022/02/01 12:41:44;;;;;;;3.97;3.00;;;7.40;99.90;;;;;;5113743;28;20474;-70
2022/02/01 12:46:59;;;;;;;2.90;2.70;;;7.40;99.90;;;;;;5113823;28;20885;-70
2022/02/01 12:49:39;;;;;;;3.30;3.10;;;7.40;99.90;;;;;;5113611;28;20478;-71
2022/02/01 12:52:16;;;;;;;3.00;2.70;;;7.40;99.90;;;;;;5113668;28;20474;-70
2022/02/01 12:54:43;;;;;;;3.30;3.00;;;7.40;99.90;;;;;;5114566;28;20438;-71
2022/02/01 12:57:11;;;;;;;2.87;2.67;;;7.40;99.90;;;;;;5113729;28;20439;-70
2022/02/01 12:59:39;;;;;;;2.80;2.60;;;7.50;99.90;;;;;;5113431;28;20439;-70
2022/02/01 13:02:07;;;;;;;3.10;2.80;;;7.50;99.90;;;;;;5113734;28;20466;-70
2022/02/01 13:04:33;;;;;;;3.17;2.87;;;7.50;99.90;;;;;;5113601;28;20435;-70
2022/02/01 13:07:02;;;;;;;3.90;3.60;;;7.50;99.90;;;;;;5113571;28;20449;-70
2022/02/01 13:15:16;;;;;;;4.60;3.53;;;7.60;99.90;;;;;;5113493;28;20544;-70
2022/02/01 13:17:47;;;;;;;3.87;3.57;;;7.50;99.90;;;;;;5113156;28;20450;-70
2022/02/01 13:20:19;;;;;;;3.43;3.23;;;7.50;99.90;;;;;;5113371;28;20473;-70
2022/02/01 13:22:53;;;;;;;3.17;2.87;;;7.60;99.90;;;;;;5113375;28;20532;-71
2022/02/01 13:25:29;;;;;;;3.27;3.07;;;7.50;99.90;;;;;;5116594;28;20828;-71
2022/02/01 13:27:56;;;;;;;2.87;2.60;;;7.60;99.90;;;;;;5117176;28;20437;-70
2022/02/01 13:30:23;;;;;;;3.17;2.97;;;7.60;99.90;;;;;;5116962;28;20514;-70
2022/02/01 13:32:53;;;;;;;3.83;3.53;;;7.60;99.90;;;;;;5116995;28;20469;-70
2022/02/01 13:35:20;;;;;;;3.43;3.13;;;7.60;99.90;;;;;;5116907;28;20443;-70
2022/02/01 13:37:48;;;;;;;4.80;4.40;;;7.60;99.90;;;;;;5116508;28;20933;-70
2022/02/01 13:40:25;;;;;;;3.80;3.50;;;7.60;99.90;;;;;;5116461;28;20988;-71
2022/02/01 13:42:52;;;;;;;3.67;3.37;;;7.60;99.90;;;;;;5116802;28;20847;-71
2022/02/01 13:45:19;;;;;;;3.30;3.00;;;7.70;99.90;;;;;;5116751;28;20447;-71
2022/02/01 13:47:49;;;;;;;4.30;4.00;;;7.70;99.90;;;;;;5116328;28;20972;-71
2022/02/01 13:50:18;;;;;;;3.60;3.30;;;7.60;99.90;;;;;;5116562;28;20482;-71
2022/02/01 13:52:56;;;;;;;4.07;3.77;;;7.70;99.90;;;;;;5116553;28;20450;-70
2022/02/01 13:55:24;;;;;;;4.40;4.10;;;7.70;99.90;;;;;;5116524;27;20427;-70
2022/02/01 13:57:54;;;;;;;4.83;4.33;;;7.70;99.90;;;;;;5116482;28;20431;-70
2022/02/01 14:00:22;;;;;;;5.20;4.40;;;7.70;99.90;;;;;;5116760;28;20491;-71
2022/02/01 14:02:52;;;;;;;4.83;4.43;;;7.70;99.90;;;;;;5116356;27;20537;-71
2022/02/01 14:05:25;;;;;;;4.73;4.23;;;7.70;99.90;;;;;;5117121;28;20542;-70
2022/02/01 14:08:03;;;;;;;5.10;4.70;;;7.70;99.90;;;;;;5116302;28;20435;-70
2022/02/01 14:10:41;;;;;;;5.07;4.57;;;7.80;99.90;;;;;;5116097;28;20482;-71
2022/02/01 14:13:39;;;;;;;5.00;4.47;;;7.80;99.90;;;;;;5116155;28;20434;-71
2022/02/01 14:27:15;;;;;;;8.40;6.50;;;7.90;99.90;;;;;;5115579;28;20476;-70